createdAt,value
2019-02-16T00:02:05.350Z,18.80
2019-02-16T00:04:11.651Z,20.85
2019-02-16T00:06:17.866Z,21.77
2019-02-16T00:08:24.095Z,21.07
2019-02-16T00:10:30.536Z,20.05
2019-02-16T00:12:37.074Z,23.22
2019-02-16T00:14:43.440Z,19.40
2019-02-16T00:16:49.708Z,19.67
2019-02-16T00:18:55.996Z,21.42
2019-02-16T00:21:04.284Z,21.93
2019-02-16T00:23:10.259Z,22.07
2019-02-16T00:25:16.907Z,22.60
2019-02-16T00:27:23.267Z,20.88
2019-02-16T00:29:29.558Z,23.10
2019-02-16T00:31:35.900Z,22.00
2019-02-16T00:33:42.268Z,21.50
2019-02-16T00:35:48.570Z,21.52
2019-02-16T00:37:54.906Z,21.62
2019-02-16T00:40:01.204Z,22.45
2019-02-16T00:42:07.577Z,20.85
2019-02-16T00:44:13.901Z,19.02
2019-02-16T00:46:20.425Z,21.55
2019-02-16T00:48:26.721Z,22.75
2019-02-16T00:50:33.046Z,21.70
2019-02-16T00:52:39.266Z,18.00
2019-02-16T00:54:45.749Z,23.30
2019-02-16T00:56:51.989Z,22.50
2019-02-16T00:58:58.359Z,19.77
2019-02-16T01:01:04.650Z,20.08
2019-02-16T01:03:10.968Z,22.00
2019-02-16T01:05:17.341Z,20.45
2019-02-16T01:07:23.705Z,19.85
2019-02-16T01:09:30.087Z,20.88
2019-02-16T01:11:36.395Z,21.40
2019-02-16T01:13:42.634Z,21.95
2019-02-16T01:15:48.901Z,22.25
2019-02-16T01:17:55.240Z,21.40
2019-02-16T01:20:01.421Z,23.05
2019-02-16T01:22:07.684Z,20.72
2019-02-16T01:24:13.987Z,22.80
2019-02-16T01:26:20.156Z,22.20
2019-02-16T01:28:26.427Z,19.85
2019-02-16T01:30:32.678Z,19.75
2019-02-16T01:32:38.987Z,21.42
2019-02-16T01:34:45.167Z,19.15
2019-02-16T01:36:51.405Z,20.88
2019-02-16T01:38:57.640Z,18.70
2019-02-16T01:41:03.915Z,18.55
2019-02-16T01:43:10.141Z,19.70
2019-02-16T01:45:16.511Z,19.45
2019-02-16T01:47:22.742Z,18.40
2019-02-16T01:49:28.974Z,23.05
2019-02-16T01:51:35.139Z,21.93
2019-02-16T01:53:41.322Z,19.87
2019-02-16T01:55:47.652Z,17.65
2019-02-16T01:57:54.017Z,18.48
2019-02-16T02:00:00.339Z,21.23
2019-02-16T02:02:06.584Z,18.62
2019-02-16T02:04:12.832Z,21.30
2019-02-16T02:06:19.090Z,18.23
2019-02-16T02:08:25.532Z,18.98
2019-02-16T02:10:31.911Z,17.27
2019-02-16T02:12:38.226Z,18.37
2019-02-16T02:14:44.545Z,15.28
2019-02-16T02:16:50.854Z,16.10
2019-02-16T02:18:57.055Z,14.83
2019-02-16T02:21:03.365Z,14.95
2019-02-16T02:23:09.543Z,13.88
2019-02-16T02:25:15.739Z,14.13
2019-02-16T02:27:22.041Z,15.13
2019-02-16T02:29:28.215Z,14.25
2019-02-16T02:31:34.403Z,12.80
2019-02-16T02:33:40.620Z,12.28
2019-02-16T02:35:46.856Z,14.98
2019-02-16T02:37:54.153Z,15.65
2019-02-16T02:40:00.420Z,12.73
2019-02-16T02:42:06.622Z,12.50
2019-02-16T02:44:12.867Z,14.20
2019-02-16T02:46:19.039Z,13.88
2019-02-16T02:48:25.255Z,13.78
2019-02-16T02:50:31.517Z,12.55
2019-02-16T02:52:38.703Z,13.48
2019-02-16T02:54:45.196Z,14.68
2019-02-16T02:56:52.438Z,13.58
2019-02-16T02:58:58.599Z,13.45
2019-02-16T03:01:04.755Z,14.03
2019-02-16T03:03:12.000Z,12.43
2019-02-16T03:05:18.230Z,13.60
2019-02-16T03:07:24.520Z,12.88
2019-02-16T03:09:30.862Z,17.42
2019-02-16T03:11:37.151Z,13.20
2019-02-16T03:13:43.315Z,15.28
2019-02-16T03:15:49.493Z,13.95
2019-02-16T03:17:55.683Z,11.85
2019-02-16T03:20:02.032Z,12.95
2019-02-16T03:22:08.565Z,15.43
2019-02-16T03:24:14.904Z,12.98
2019-02-16T03:26:31.825Z,13.03
2019-02-16T03:28:57.487Z,13.20
2019-02-16T03:31:36.763Z,13.10
2019-02-16T03:33:59.715Z,13.10
2019-02-16T03:36:31.993Z,15.23
2019-02-16T03:38:54.874Z,12.85
2019-02-16T03:41:01.200Z,12.43
2019-02-16T03:43:07.371Z,13.18
2019-02-16T03:45:13.536Z,13.53
2019-02-16T03:47:19.855Z,12.73
2019-02-16T03:49:26.096Z,12.85
2019-02-16T03:51:32.272Z,12.75
2019-02-16T03:53:38.456Z,13.13
2019-02-16T03:55:44.745Z,13.50
2019-02-16T03:57:50.913Z,13.30
2019-02-16T03:59:57.187Z,14.75
2019-02-16T04:02:03.489Z,14.70
2019-02-16T04:04:09.878Z,13.50
2019-02-16T04:06:16.056Z,13.28
2019-02-16T04:08:22.291Z,13.18
2019-02-16T04:10:28.454Z,12.07
2019-02-16T04:12:34.724Z,12.30
2019-02-16T04:14:41.055Z,10.72
2019-02-16T04:16:47.220Z,12.88
2019-02-16T04:18:53.549Z,11.78
2019-02-16T04:20:59.843Z,11.00
2019-02-16T04:23:06.072Z,11.50
2019-02-16T04:25:12.279Z,12.50
2019-02-16T04:27:18.496Z,12.80
2019-02-16T04:29:24.749Z,12.82
2019-02-16T04:31:31.084Z,17.23
2019-02-16T04:33:37.343Z,14.47
2019-02-16T04:35:43.501Z,14.80
2019-02-16T04:37:49.899Z,12.73
2019-02-16T04:39:56.100Z,14.73
2019-02-16T04:42:02.389Z,13.15
2019-02-16T04:44:08.771Z,11.65
2019-02-16T04:46:14.935Z,10.15
2019-02-16T04:48:21.178Z,10.75
2019-02-16T04:50:27.500Z,11.90
2019-02-16T04:52:35.066Z,10.40
2019-02-16T04:54:41.583Z,9.15
2019-02-16T04:56:48.217Z,10.30
2019-02-16T04:58:54.532Z,11.93
2019-02-16T05:01:00.905Z,10.18
2019-02-16T05:03:07.248Z,9.25
2019-02-16T05:05:13.618Z,10.65
2019-02-16T05:07:19.833Z,9.25
2019-02-16T05:09:26.095Z,9.38
2019-02-16T05:11:32.319Z,8.00
2019-02-16T05:13:38.478Z,9.70
2019-02-16T05:15:44.738Z,8.95
2019-02-16T05:17:50.897Z,10.25
2019-02-16T05:19:57.129Z,10.28
2019-02-16T05:22:03.586Z,8.45
2019-02-16T05:24:09.813Z,8.83
2019-02-16T05:26:15.971Z,10.70
2019-02-16T05:28:22.288Z,8.10
2019-02-16T05:30:28.555Z,8.10
2019-02-16T05:32:34.766Z,7.25
2019-02-16T05:34:40.980Z,7.80
2019-02-16T05:36:47.201Z,7.72
2019-02-16T05:38:54.507Z,7.28
2019-02-16T05:41:00.696Z,8.38
2019-02-16T05:43:06.923Z,7.62
2019-02-16T05:45:13.144Z,6.62
2019-02-16T05:47:19.399Z,6.97
2019-02-16T05:49:25.738Z,8.55
2019-02-16T05:51:32.071Z,7.95
2019-02-16T05:53:38.390Z,6.53
2019-02-16T05:55:44.630Z,7.78
2019-02-16T05:57:50.945Z,7.87
2019-02-16T05:59:57.241Z,6.55
2019-02-16T06:02:03.673Z,6.97
2019-02-16T06:04:09.895Z,7.40
2019-02-16T06:06:16.135Z,7.75
2019-02-16T06:08:22.304Z,6.65
2019-02-16T06:10:28.591Z,7.03
2019-02-16T06:12:34.833Z,6.85
2019-02-16T06:14:41.199Z,7.58
2019-02-16T06:16:47.434Z,8.50
2019-02-16T06:18:53.774Z,9.75
2019-02-16T06:21:01.880Z,7.45
2019-02-16T06:23:08.002Z,6.83
2019-02-16T06:25:14.385Z,6.00
2019-02-16T06:27:20.610Z,5.90
2019-02-16T06:29:26.988Z,6.53
2019-02-16T06:31:33.302Z,6.50
2019-02-16T06:33:39.550Z,6.72
2019-02-16T06:35:47.483Z,6.62
2019-02-16T06:37:53.734Z,6.22
2019-02-16T06:40:00.028Z,6.35
2019-02-16T06:42:06.193Z,5.80
2019-02-16T06:44:12.583Z,6.45
2019-02-16T06:46:18.738Z,6.70
2019-02-16T06:48:24.966Z,6.35
2019-02-16T06:50:36.870Z,6.65
2019-02-16T06:52:39.136Z,6.72
2019-02-16T06:54:45.385Z,6.65
2019-02-16T06:57:05.331Z,5.67
2019-02-16T06:59:11.576Z,6.50
2019-02-16T07:01:18.064Z,6.62
2019-02-16T07:03:24.258Z,6.08
2019-02-16T07:05:30.477Z,8.48
2019-02-16T07:07:36.812Z,6.12
2019-02-16T07:09:43.135Z,5.35
2019-02-16T07:11:49.357Z,5.65
2019-02-16T07:13:55.513Z,6.12
2019-02-16T07:16:19.461Z,6.15
2019-02-16T07:18:27.270Z,5.87
2019-02-16T07:20:33.423Z,6.03
2019-02-16T07:22:39.706Z,4.92
2019-02-16T07:24:45.851Z,5.35
2019-02-16T07:26:52.144Z,5.12
2019-02-16T07:28:58.342Z,6.37
2019-02-16T07:31:04.497Z,7.15
2019-02-16T07:33:10.731Z,8.13
2019-02-16T07:35:16.935Z,7.17
2019-02-16T07:37:23.237Z,7.70
2019-02-16T07:39:29.400Z,6.50
2019-02-16T07:41:35.652Z,6.37
2019-02-16T07:43:46.179Z,6.00
2019-02-16T07:45:54.120Z,5.85
2019-02-16T07:48:01.950Z,9.45
2019-02-16T07:50:12.533Z,6.97
2019-02-16T07:52:23.674Z,5.70
2019-02-16T07:54:43.515Z,7.53
2019-02-16T07:56:51.350Z,5.15
2019-02-16T07:58:59.221Z,5.62
2019-02-16T08:01:07.118Z,5.85
2019-02-16T08:03:14.978Z,5.00
2019-02-16T08:05:22.899Z,5.03
2019-02-16T08:07:30.995Z,5.08
2019-02-16T08:09:55.140Z,5.35
2019-02-16T08:12:05.612Z,5.65
2019-02-16T08:14:29.623Z,5.70
2019-02-16T08:16:41.529Z,5.90
2019-02-16T08:19:05.685Z,5.72
2019-02-16T08:21:13.584Z,6.20
2019-02-16T08:23:40.416Z,6.22
2019-02-16T08:25:47.278Z,7.85
2019-02-16T08:27:55.085Z,5.35
2019-02-16T08:30:03.108Z,6.08
2019-02-16T08:32:19.820Z,7.40
2019-02-16T08:34:28.831Z,9.90
2019-02-16T08:36:39.542Z,7.03
2019-02-16T08:38:56.127Z,7.03
2019-02-16T08:41:09.743Z,6.70
2019-02-16T08:43:26.671Z,5.47
2019-02-16T08:45:35.370Z,6.40
2019-02-16T08:47:43.337Z,7.60
2019-02-16T08:50:03.502Z,6.62
2019-02-16T08:52:21.459Z,6.30
2019-02-16T08:54:27.402Z,7.62
2019-02-16T08:56:44.213Z,6.62
2019-02-16T08:58:57.649Z,7.55
2019-02-16T09:01:21.718Z,6.70
2019-02-16T09:03:27.722Z,8.25
2019-02-16T09:05:41.519Z,6.85
2019-02-16T09:07:49.361Z,8.30
2019-02-16T09:10:09.414Z,7.55
2019-02-16T09:12:33.658Z,7.42
2019-02-16T09:14:50.467Z,6.40
2019-02-16T09:17:01.062Z,7.33
2019-02-16T09:19:20.691Z,6.90
2019-02-16T09:21:43.772Z,6.55
2019-02-16T09:23:59.138Z,6.35
2019-02-16T09:26:19.080Z,6.85
2019-02-16T09:28:35.694Z,6.25
2019-02-16T09:30:45.634Z,7.80
2019-02-16T09:32:53.554Z,7.25
2019-02-16T09:35:07.469Z,8.28
2019-02-16T09:37:21.248Z,7.87
2019-02-16T09:39:29.055Z,7.72
2019-02-16T09:41:36.864Z,8.08
2019-02-16T09:44:02.852Z,6.65
2019-02-16T09:46:23.602Z,7.62
2019-02-16T09:48:40.526Z,7.30
2019-02-16T09:50:51.248Z,7.33
2019-02-16T09:53:07.669Z,7.12
2019-02-16T09:55:13.634Z,6.92
2019-02-16T09:57:25.428Z,6.70
2019-02-16T09:59:33.293Z,6.53
2019-02-16T10:01:43.654Z,6.47
2019-02-16T10:03:51.522Z,6.70
2019-02-16T10:05:59.386Z,7.17
2019-02-16T10:08:07.326Z,6.22
2019-02-16T10:10:20.625Z,6.60
2019-02-16T10:12:44.647Z,5.85
2019-02-16T10:14:55.516Z,6.40
2019-02-16T10:17:10.076Z,6.47
2019-02-16T10:19:31.364Z,6.83
2019-02-16T10:21:45.162Z,7.58
2019-02-16T10:23:56.200Z,6.25
2019-02-16T10:26:02.192Z,6.30
2019-02-16T10:28:23.158Z,8.58
2019-02-16T10:30:40.071Z,7.22
2019-02-16T10:33:04.139Z,7.50
2019-02-16T10:35:14.800Z,9.78
2019-02-16T10:37:28.811Z,7.50
2019-02-16T10:39:36.681Z,7.80
2019-02-16T10:41:45.269Z,7.55
2019-02-16T10:43:54.400Z,9.13
2019-02-16T10:48:24.228Z,6.12
2019-02-16T10:50:32.120Z,7.70
2019-02-16T10:52:42.409Z,8.23
2019-02-16T10:54:50.215Z,9.63
2019-02-16T10:57:02.226Z,8.50
2019-02-16T10:59:10.159Z,9.35
2019-02-16T11:01:20.824Z,8.38
2019-02-16T11:03:31.419Z,9.20
2019-02-16T11:05:42.333Z,10.10
2019-02-16T11:07:53.108Z,9.10
2019-02-16T11:10:01.028Z,8.03
2019-02-16T11:12:08.817Z,8.58
2019-02-16T11:14:33.038Z,7.53
2019-02-16T11:16:56.296Z,8.20
2019-02-16T11:19:14.630Z,9.08
2019-02-16T11:21:25.404Z,9.03
2019-02-16T11:23:45.561Z,10.53
2019-02-16T11:25:59.039Z,10.60
2019-02-16T11:28:19.216Z,10.38
2019-02-16T11:30:34.015Z,9.60
2019-02-16T11:32:47.455Z,10.05
2019-02-16T11:34:58.222Z,11.93
2019-02-16T11:37:14.971Z,10.68
2019-02-16T11:39:25.560Z,10.70
2019-02-16T11:41:34.607Z,9.58
2019-02-16T11:45:55.286Z,10.08
2019-02-16T11:48:12.799Z,11.75
2019-02-16T11:50:32.541Z,10.98
2019-02-16T11:52:43.291Z,10.48
2019-02-16T11:55:06.477Z,10.75
2019-02-16T11:57:29.388Z,10.20
2019-02-16T11:59:43.313Z,10.60
2019-02-16T12:01:51.446Z,10.55
2019-02-16T12:04:02.096Z,12.73
2019-02-16T12:06:10.096Z,13.32
2019-02-16T12:08:18.985Z,11.83
2019-02-16T12:10:30.328Z,11.73
2019-02-16T12:12:56.113Z,11.75
2019-02-16T12:15:13.075Z,11.50
2019-02-16T12:17:19.006Z,11.35
2019-02-16T12:19:36.054Z,13.93
2019-02-16T12:21:46.734Z,14.63
2019-02-16T12:23:54.621Z,14.60
2019-02-16T12:26:08.473Z,13.55
2019-02-16T12:28:16.352Z,13.58
2019-02-16T12:30:36.205Z,13.90
2019-02-16T12:32:53.103Z,12.58
2019-02-16T12:35:13.047Z,13.53
2019-02-16T12:37:26.409Z,12.43
2019-02-16T12:39:34.287Z,12.82
2019-02-16T12:41:44.959Z,13.35
2019-02-16T12:43:50.951Z,12.43
2019-02-16T12:45:58.829Z,12.95
2019-02-16T12:48:06.649Z,15.35
2019-02-16T12:50:20.296Z,18.10
2019-02-16T12:52:28.945Z,15.05
2019-02-16T12:54:54.999Z,16.23
2019-02-16T12:57:02.871Z,16.40
2019-02-16T12:59:10.738Z,14.87
2019-02-16T13:01:33.698Z,16.17
2019-02-16T13:03:44.175Z,15.50
2019-02-16T13:06:08.765Z,17.37
2019-02-16T13:08:55.149Z,17.02
2019-02-16T13:11:08.947Z,18.05
2019-02-16T13:13:33.029Z,16.23
2019-02-16T13:15:40.975Z,19.90
2019-02-16T13:17:48.840Z,18.85
2019-02-16T13:19:54.875Z,18.60
2019-02-16T13:22:02.803Z,18.87
2019-02-16T13:24:22.946Z,17.77
2019-02-16T13:26:46.703Z,17.55
2019-02-16T13:29:06.456Z,20.02
2019-02-16T13:31:16.930Z,19.35
2019-02-16T13:33:30.640Z,17.25
2019-02-16T13:35:47.254Z,17.87
2019-02-16T13:38:11.122Z,19.20
2019-02-16T13:40:17.062Z,18.42
2019-02-16T13:42:28.809Z,20.70
2019-02-16T13:44:36.607Z,21.20
2019-02-16T13:46:44.424Z,20.08
2019-02-16T13:48:55.334Z,18.50
2019-02-16T13:51:08.915Z,21.00
2019-02-16T13:53:16.785Z,19.30
2019-02-16T13:55:33.176Z,20.27
2019-02-16T13:57:36.925Z,19.42
2019-02-16T13:59:44.744Z,19.23
2019-02-16T14:01:50.714Z,18.12
2019-02-16T14:04:01.435Z,18.42
2019-02-16T14:06:09.383Z,18.90
2019-02-16T14:08:17.346Z,17.73
2019-02-16T14:10:28.118Z,18.55
2019-02-16T14:12:38.989Z,18.02
2019-02-16T14:14:46.813Z,18.27
2019-02-16T14:16:54.686Z,18.57
2019-02-16T14:19:00.986Z,19.10
2019-02-16T14:21:07.329Z,18.90
2019-02-16T14:23:14.139Z,18.42
2019-02-16T14:25:21.934Z,17.57
2019-02-16T14:27:28.324Z,22.77
2019-02-16T14:29:34.526Z,19.85
2019-02-16T14:31:40.870Z,20.10
2019-02-16T14:33:47.128Z,20.08
2019-02-16T14:35:53.791Z,21.02
2019-02-16T14:38:11.063Z,20.75
2019-02-16T14:40:17.309Z,20.20
2019-02-16T14:42:23.528Z,20.35
2019-02-16T14:44:29.687Z,21.27
2019-02-16T14:46:36.165Z,21.07
2019-02-16T14:48:42.387Z,19.40
2019-02-16T14:50:48.761Z,23.27
2019-02-16T14:52:55.186Z,20.95
2019-02-16T14:55:01.531Z,21.55
2019-02-16T14:57:07.832Z,20.70
2019-02-16T14:59:14.161Z,22.10
2019-02-16T15:01:20.395Z,25.05
2019-02-16T15:03:26.553Z,23.40
2019-02-16T15:05:32.880Z,22.70
2019-02-16T15:07:39.284Z,21.68
2019-02-16T15:09:45.571Z,20.48
2019-02-16T15:11:51.963Z,19.37
2019-02-16T15:13:58.339Z,25.62
2019-02-16T15:16:04.668Z,21.15
2019-02-16T15:18:10.885Z,26.65
2019-02-16T15:20:17.955Z,23.50
2019-02-16T15:22:24.199Z,24.55
2019-02-16T15:24:32.005Z,25.02
2019-02-16T15:26:39.344Z,22.10
2019-02-16T15:28:45.594Z,23.00
2019-02-16T15:30:51.846Z,21.48
2019-02-16T15:32:59.302Z,25.27
2019-02-16T15:35:06.930Z,24.10
2019-02-16T15:37:15.122Z,22.37
2019-02-16T15:39:22.532Z,24.00
2019-02-16T15:41:28.769Z,21.15
2019-02-16T15:43:35.169Z,22.00
2019-02-16T15:45:41.429Z,21.95
2019-02-16T15:47:47.743Z,21.73
2019-02-16T15:49:54.012Z,21.55
2019-02-16T15:52:00.377Z,20.80
2019-02-16T15:54:06.677Z,20.23
2019-02-16T15:56:13.021Z,19.98
2019-02-16T15:58:19.375Z,22.45
2019-02-16T16:00:29.013Z,20.40
2019-02-16T16:02:35.719Z,21.68
2019-02-16T16:04:42.117Z,19.62
2019-02-16T16:06:48.491Z,20.00
2019-02-16T16:09:02.366Z,21.85
2019-02-16T16:11:15.959Z,21.10
2019-02-16T16:13:22.065Z,21.15
2019-02-16T16:15:41.998Z,21.52
2019-02-16T16:18:04.544Z,18.62
2019-02-16T16:20:15.054Z,21.48
2019-02-16T16:22:22.941Z,22.60
2019-02-16T16:24:28.931Z,21.12
2019-02-16T16:26:43.068Z,17.95
2019-02-16T16:29:00.175Z,23.32
2019-02-16T16:31:03.297Z,21.60
2019-02-16T16:33:29.579Z,22.10
2019-02-16T16:35:36.770Z,21.45
2019-02-16T16:37:59.173Z,20.80
2019-02-16T16:40:17.852Z,21.48
2019-02-16T16:42:23.871Z,20.40
2019-02-16T16:44:34.700Z,21.80
2019-02-16T16:46:51.795Z,22.22
2019-02-16T16:49:19.936Z,24.87
2019-02-16T16:51:33.888Z,22.60
2019-02-16T16:53:44.699Z,22.82
2019-02-16T16:55:55.369Z,26.77
2019-02-16T16:58:04.108Z,22.15
2019-02-16T17:00:26.675Z,23.92
2019-02-16T17:02:50.543Z,24.50
2019-02-16T17:05:10.089Z,23.35
2019-02-16T17:07:21.006Z,24.95
2019-02-16T17:09:29.748Z,25.23
2019-02-16T17:11:53.738Z,24.30
2019-02-16T17:14:01.811Z,22.65
2019-02-16T17:16:07.939Z,24.63
2019-02-16T17:18:19.650Z,25.23
2019-02-16T17:20:36.802Z,24.43
2019-02-16T17:22:47.530Z,25.27
2019-02-16T17:25:01.744Z,23.90
2019-02-16T17:27:13.825Z,26.62
2019-02-16T17:29:37.886Z,25.43
2019-02-16T17:31:48.919Z,25.35
2019-02-16T17:34:12.712Z,27.05
2019-02-16T17:36:37.720Z,25.60
2019-02-16T17:38:57.520Z,28.38
2019-02-16T17:41:24.603Z,28.12
2019-02-16T17:43:35.295Z,25.20
2019-02-16T17:45:47.319Z,30.27
2019-02-16T17:48:04.030Z,26.77
2019-02-16T17:50:12.230Z,30.50
2019-02-16T17:52:38.549Z,29.95
2019-02-16T17:54:46.593Z,26.85
2019-02-16T17:57:12.660Z,27.17
2019-02-16T17:59:20.597Z,31.37
2019-02-16T18:01:31.348Z,28.83
2019-02-16T18:03:39.179Z,31.97
2019-02-16T18:05:49.524Z,27.60
2019-02-16T18:08:00.569Z,30.72
2019-02-16T18:10:08.799Z,29.37
2019-02-16T18:12:32.925Z,30.43
2019-02-16T18:14:42.339Z,28.38
2019-02-16T18:17:06.266Z,29.70
2019-02-16T18:19:14.215Z,30.97
2019-02-16T18:21:24.781Z,31.37
2019-02-16T18:23:40.106Z,35.08
2019-02-16T18:25:55.377Z,32.13
2019-02-16T18:28:06.028Z,29.48
2019-02-16T18:30:18.598Z,30.80
2019-02-16T18:32:31.401Z,30.00
2019-02-16T18:34:39.152Z,27.70
2019-02-16T18:36:55.935Z,30.15
2019-02-16T18:39:20.862Z,30.95
2019-02-16T18:41:38.828Z,29.95
2019-02-16T18:44:03.241Z,33.60
2019-02-16T18:46:12.691Z,32.33
2019-02-16T18:48:20.644Z,31.97
2019-02-16T18:50:43.551Z,29.25
2019-02-16T18:52:54.444Z,28.50
2019-02-16T18:55:11.092Z,28.62
2019-02-16T18:57:21.016Z,31.52
2019-02-16T18:59:32.894Z,32.58
2019-02-16T19:01:38.908Z,28.62
2019-02-16T19:03:51.100Z,31.37
2019-02-16T19:06:01.642Z,29.87
2019-02-16T19:08:16.469Z,30.05
2019-02-16T19:10:32.965Z,29.72
2019-02-16T19:12:43.872Z,30.12
2019-02-16T19:15:00.639Z,31.20
2019-02-16T19:17:08.477Z,31.35
2019-02-16T19:19:26.812Z,31.33
2019-02-16T19:21:40.521Z,30.27
2019-02-16T19:24:03.115Z,30.43
2019-02-16T19:26:14.562Z,29.27
2019-02-16T19:28:26.762Z,30.60
2019-02-16T19:30:34.735Z,28.73
2019-02-16T19:32:45.241Z,29.55
2019-02-16T19:35:00.368Z,32.50
2019-02-16T19:37:23.745Z,33.13
2019-02-16T19:39:35.689Z,32.33
2019-02-16T19:41:52.438Z,33.92
2019-02-16T19:44:00.341Z,35.20
2019-02-16T19:46:06.409Z,29.63
2019-02-16T19:48:17.013Z,31.75
2019-02-16T19:50:24.980Z,32.28
2019-02-16T19:52:40.377Z,33.00
2019-02-16T19:54:54.372Z,34.70
2019-02-16T19:57:06.166Z,34.25
2019-02-16T19:59:14.116Z,31.68
2019-02-16T20:01:22.144Z,30.77
2019-02-16T20:03:32.501Z,30.72
2019-02-16T20:05:45.228Z,31.35
2019-02-16T20:07:53.105Z,34.48
2019-02-16T20:12:24.457Z,33.90
2019-02-16T20:14:32.400Z,32.73
2019-02-16T20:16:56.448Z,32.95
2019-02-16T20:19:13.078Z,32.17
2019-02-16T20:21:22.572Z,32.90
2019-02-16T20:23:41.199Z,34.10
2019-02-16T20:25:51.828Z,30.90
2019-02-16T20:28:15.962Z,29.67
2019-02-16T20:30:28.078Z,30.57
2019-02-16T20:32:49.015Z,33.02
2019-02-16T20:34:56.640Z,32.05
2019-02-16T20:37:08.918Z,30.32
2019-02-16T20:39:26.681Z,29.70
2019-02-16T20:41:39.196Z,31.37
2019-02-16T20:44:03.449Z,30.60
2019-02-16T20:46:11.389Z,30.72
2019-02-16T20:48:29.267Z,31.35
2019-02-16T20:50:53.331Z,33.70
2019-02-16T20:53:21.264Z,30.88
2019-02-16T20:55:31.004Z,30.48
2019-02-16T20:57:47.778Z,31.12
2019-02-16T20:59:52.608Z,32.53
2019-02-16T21:02:05.120Z,31.52
2019-02-16T21:04:27.999Z,33.45
2019-02-16T21:06:50.563Z,31.55
2019-02-16T21:09:14.492Z,31.85
2019-02-16T21:11:38.265Z,29.98
2019-02-16T21:13:50.541Z,32.00
2019-02-16T21:16:01.274Z,34.15
2019-02-16T21:18:13.265Z,31.50
2019-02-16T21:20:37.056Z,30.52
2019-02-16T21:23:01.978Z,32.70
2019-02-16T21:25:26.126Z,34.83
2019-02-16T21:27:35.340Z,30.32
2019-02-16T21:31:59.375Z,31.23
2019-02-16T21:34:19.206Z,30.35
2019-02-16T21:36:26.377Z,32.30
2019-02-16T21:38:39.193Z,33.25
2019-02-16T21:40:51.246Z,34.73
2019-02-16T21:43:08.172Z,32.67
2019-02-16T21:45:31.162Z,34.48
2019-02-16T21:47:55.334Z,32.73
2019-02-16T21:50:03.882Z,32.30
2019-02-16T21:52:12.978Z,32.98
2019-02-16T21:54:21.511Z,33.33
2019-02-16T21:56:30.678Z,32.53
2019-02-16T22:00:56.641Z,32.40
2019-02-16T22:03:10.626Z,33.65
2019-02-16T22:05:16.744Z,34.27
2019-02-16T22:07:27.804Z,31.30
2019-02-16T22:09:33.898Z,34.33
2019-02-16T22:11:44.686Z,32.42
2019-02-16T22:13:51.066Z,32.83
2019-02-16T22:15:57.426Z,34.15
2019-02-16T22:18:03.769Z,32.25
2019-02-16T22:20:11.871Z,32.80
2019-02-16T22:22:20.709Z,31.77
2019-02-16T22:24:28.314Z,31.12
2019-02-16T22:26:34.676Z,30.77
2019-02-16T22:28:40.914Z,31.12
2019-02-16T22:30:47.317Z,31.45
2019-02-16T22:32:54.576Z,32.83
2019-02-16T22:35:02.499Z,31.95
2019-02-16T22:37:09.059Z,32.53
2019-02-16T22:39:16.861Z,30.72
2019-02-16T22:41:24.795Z,30.23
2019-02-16T22:43:31.155Z,34.00
2019-02-16T22:45:37.544Z,32.08
2019-02-16T22:47:43.841Z,32.60
2019-02-16T22:49:50.153Z,32.58
2019-02-16T22:51:58.149Z,30.92
2019-02-16T22:54:04.364Z,35.50
2019-02-16T22:56:10.795Z,32.15
2019-02-16T22:58:28.255Z,37.98
2019-02-16T23:00:27.674Z,33.70
2019-02-16T23:02:35.468Z,31.55
2019-02-16T23:04:41.682Z,31.33
2019-02-16T23:06:47.853Z,34.50
2019-02-16T23:08:54.107Z,30.75
2019-02-16T23:11:00.287Z,30.68
2019-02-16T23:13:07.594Z,29.63
2019-02-16T23:15:14.052Z,29.27
2019-02-16T23:17:20.441Z,28.80
2019-02-16T23:19:26.801Z,29.15
2019-02-16T23:21:33.044Z,29.80
2019-02-16T23:23:39.203Z,28.92
2019-02-16T23:25:45.679Z,30.20
2019-02-16T23:27:52.051Z,30.43
2019-02-16T23:29:58.287Z,29.05
2019-02-16T23:32:04.553Z,29.25
2019-02-16T23:34:10.804Z,29.45
2019-02-16T23:36:50.538Z,28.70
2019-02-16T23:38:57.035Z,29.20
2019-02-16T23:41:03.477Z,30.08
2019-02-16T23:43:09.788Z,28.10
2019-02-16T23:45:16.190Z,28.00
2019-02-16T23:47:22.540Z,29.20
2019-02-16T23:49:28.701Z,27.82
2019-02-16T23:51:35.080Z,28.27
2019-02-16T23:53:41.268Z,28.27
2019-02-16T23:55:47.505Z,28.90
2019-02-16T23:57:53.878Z,27.07
